DLH1MM EDDF-EDDS
Flight info
| Callsign | DLH1MM |
|---|---|
| Flight time | 0h 31m |
| Altitude | 17000 |
| Route | ANEKI2L/18 ANEKI Y163 NEKLO Y171 INKAM N850 KRH T128 BADSO BADSO2A |
| Aircraft | A319/M-SDE2E3FGIJ1LORWXYZ/HB1 |
Departure
| Time | 2026-04-18 08:24 |
|---|---|
| Airport | Frankfurt Main Airport (EDDF) |
Arrival
| Time | 2026-04-18 08:56 |
|---|---|
| Airport | Stuttgart Airport (EDDS) |
| Time | Latitude | Longitude | Altitude | Speed | Heading |
|---|---|---|---|---|---|
| 2026-04-18 08:04 | 50.04890 | 8.59588 | 370 ft | 0 kts | 297° |
| 2026-04-18 08:16 | 50.04884 | 8.59606 | 372 ft | 4 kts | 297° |
| 2026-04-18 08:17 | 50.04872 | 8.59643 | 370 ft | 4 kts | 288° |
| 2026-04-18 08:17 | 50.04870 | 8.59681 | 370 ft | 4 kts | 250° |
| 2026-04-18 08:17 | 50.04866 | 8.59664 | 370 ft | 4 kts | 249° |
| 2026-04-18 08:17 | 50.04861 | 8.59644 | 370 ft | 0 kts | 249° |
| 2026-04-18 08:20 | 50.04856 | 8.59622 | 370 ft | 4 kts | 249° |
| 2026-04-18 08:20 | 50.04845 | 8.59566 | 370 ft | 8 kts | 262° |
| 2026-04-18 08:21 | 50.04860 | 8.59451 | 373 ft | 12 kts | 286° |
| 2026-04-18 08:21 | 50.04854 | 8.59302 | 370 ft | 16 kts | 249° |
| 2026-04-18 08:21 | 50.04813 | 8.59131 | 372 ft | 17 kts | 249° |
| 2026-04-18 08:21 | 50.04771 | 8.58953 | 373 ft | 18 kts | 250° |
| 2026-04-18 08:22 | 50.04719 | 8.58780 | 374 ft | 17 kts | 219° |
| 2026-04-18 08:22 | 50.04608 | 8.58742 | 371 ft | 16 kts | 204° |
| 2026-04-18 08:22 | 50.04519 | 8.58634 | 371 ft | 16 kts | 213° |
| 2026-04-18 08:22 | 50.04477 | 8.58544 | 370 ft | 0 kts | 249° |
| 2026-04-18 08:23 | 50.04404 | 8.58244 | 370 ft | 71 kts | 249° |
| 2026-04-18 08:24 | 50.04144 | 8.57154 | 365 ft | 141 kts | 250° |
| 2026-04-18 08:24 | 50.03751 | 8.55504 | 644 ft | 169 kts | 250° |
| 2026-04-18 08:24 | 50.03336 | 8.53787 | 1372 ft | 170 kts | 249° |
| 2026-04-18 08:24 | 50.02899 | 8.52026 | 2028 ft | 181 kts | 249° |
| 2026-04-18 08:25 | 50.02137 | 8.50396 | 2470 ft | 201 kts | 213° |
| 2026-04-18 08:25 | 50.00788 | 8.49553 | 2994 ft | 213 kts | 197° |
| 2026-04-18 08:25 | 49.99322 | 8.49238 | 3771 ft | 214 kts | 173° |
| 2026-04-18 08:25 | 49.97951 | 8.50011 | 4661 ft | 208 kts | 147° |
| 2026-04-18 08:26 | 49.96854 | 8.51515 | 5321 ft | 216 kts | 137° |
| 2026-04-18 08:26 | 49.95520 | 8.52745 | 5775 ft | 235 kts | 162° |
| 2026-04-18 08:26 | 49.93831 | 8.53140 | 6239 ft | 258 kts | 179° |
| 2026-04-18 08:26 | 49.91972 | 8.53185 | 6949 ft | 273 kts | 179° |
| 2026-04-18 08:27 | 49.90059 | 8.53268 | 7933 ft | 277 kts | 178° |
| 2026-04-18 08:27 | 49.88117 | 8.53400 | 8909 ft | 282 kts | 178° |
| 2026-04-18 08:27 | 49.86144 | 8.53554 | 9861 ft | 286 kts | 178° |
| 2026-04-18 08:27 | 49.84127 | 8.53712 | 10616 ft | 299 kts | 178° |
| 2026-04-18 08:28 | 49.82001 | 8.53871 | 11065 ft | 319 kts | 178° |
| 2026-04-18 08:28 | 49.79751 | 8.54032 | 11846 ft | 327 kts | 178° |
| 2026-04-18 08:28 | 49.77459 | 8.54067 | 12694 ft | 332 kts | 185° |
| 2026-04-18 08:28 | 49.75105 | 8.53948 | 13556 ft | 337 kts | 180° |
| 2026-04-18 08:29 | 49.72780 | 8.54176 | 14368 ft | 342 kts | 176° |
| 2026-04-18 08:29 | 49.70369 | 8.54572 | 15158 ft | 346 kts | 175° |
| 2026-04-18 08:29 | 49.67958 | 8.54997 | 15917 ft | 351 kts | 175° |
| 2026-04-18 08:29 | 49.65550 | 8.55387 | 16607 ft | 356 kts | 176° |
| 2026-04-18 08:30 | 49.63076 | 8.55732 | 16859 ft | 357 kts | 178° |
| 2026-04-18 08:30 | 49.60602 | 8.56030 | 17095 ft | 358 kts | 178° |
| 2026-04-18 08:30 | 49.58126 | 8.56294 | 17176 ft | 351 kts | 179° |
| 2026-04-18 08:30 | 49.55744 | 8.56540 | 17191 ft | 337 kts | 179° |
| 2026-04-18 08:31 | 49.53420 | 8.56773 | 17191 ft | 333 kts | 179° |
| 2026-04-18 08:31 | 49.51114 | 8.57004 | 17193 ft | 332 kts | 179° |
| 2026-04-18 08:31 | 49.48810 | 8.57241 | 17192 ft | 332 kts | 179° |
| 2026-04-18 08:31 | 49.46505 | 8.57481 | 17192 ft | 332 kts | 179° |
| 2026-04-18 08:32 | 49.44202 | 8.57725 | 17193 ft | 332 kts | 179° |
| 2026-04-18 08:32 | 49.41898 | 8.57965 | 17192 ft | 332 kts | 179° |
| 2026-04-18 08:32 | 49.39593 | 8.58207 | 17194 ft | 332 kts | 179° |
| 2026-04-18 08:32 | 49.37285 | 8.58451 | 17194 ft | 332 kts | 179° |
| 2026-04-18 08:33 | 49.34979 | 8.58696 | 17193 ft | 332 kts | 179° |
| 2026-04-18 08:33 | 49.32684 | 8.59201 | 17193 ft | 334 kts | 172° |
| 2026-04-18 08:33 | 49.30399 | 8.59859 | 17193 ft | 334 kts | 172° |
| 2026-04-18 08:33 | 49.28859 | 8.60326 | 17193 ft | 335 kts | 171° |
| 2026-04-18 08:34 | 49.25752 | 8.61288 | 16922 ft | 348 kts | 171° |
| 2026-04-18 08:34 | 49.23375 | 8.62030 | 16673 ft | 349 kts | 171° |
| 2026-04-18 08:34 | 49.20998 | 8.62770 | 16413 ft | 348 kts | 171° |
| 2026-04-18 08:34 | 49.18631 | 8.63501 | 16024 ft | 346 kts | 171° |
| 2026-04-18 08:35 | 49.16274 | 8.64225 | 15623 ft | 344 kts | 171° |
| 2026-04-18 08:35 | 49.14721 | 8.64699 | 15357 ft | 343 kts | 171° |
| 2026-04-18 08:35 | 49.12388 | 8.65407 | 14956 ft | 341 kts | 171° |
| 2026-04-18 08:35 | 49.10072 | 8.66106 | 14562 ft | 339 kts | 171° |
| 2026-04-18 08:36 | 49.07758 | 8.66809 | 14161 ft | 337 kts | 171° |
| 2026-04-18 08:36 | 49.05505 | 8.67748 | 13757 ft | 337 kts | 158° |
| 2026-04-18 08:36 | 49.03556 | 8.69708 | 13354 ft | 338 kts | 137° |
| 2026-04-18 08:36 | 49.02171 | 8.72575 | 12964 ft | 337 kts | 116° |
| 2026-04-18 08:37 | 49.01466 | 8.75916 | 12804 ft | 326 kts | 104° |
| 2026-04-18 08:37 | 49.00903 | 8.79216 | 12672 ft | 316 kts | 104° |
| 2026-04-18 08:37 | 49.00349 | 8.82437 | 12545 ft | 306 kts | 105° |
| 2026-04-18 08:37 | 48.99813 | 8.85535 | 12420 ft | 300 kts | 105° |
| 2026-04-18 08:38 | 48.99282 | 8.88594 | 12293 ft | 298 kts | 105° |
| 2026-04-18 08:38 | 48.98739 | 8.91629 | 12168 ft | 297 kts | 108° |
| 2026-04-18 08:38 | 48.97729 | 8.94328 | 12044 ft | 294 kts | 130° |
| 2026-04-18 08:38 | 48.96379 | 8.96656 | 11928 ft | 293 kts | 134° |
| 2026-04-18 08:39 | 48.94996 | 8.98941 | 11815 ft | 294 kts | 134° |
| 2026-04-18 08:39 | 48.93589 | 9.01251 | 11689 ft | 296 kts | 134° |
| 2026-04-18 08:39 | 48.92224 | 9.03482 | 11561 ft | 288 kts | 134° |
| 2026-04-18 08:39 | 48.90881 | 9.05674 | 11434 ft | 279 kts | 134° |
| 2026-04-18 08:40 | 48.89579 | 9.07793 | 11311 ft | 270 kts | 134° |
| 2026-04-18 08:40 | 48.88316 | 9.09847 | 11191 ft | 261 kts | 134° |
| 2026-04-18 08:40 | 48.87106 | 9.11817 | 11140 ft | 250 kts | 134° |
| 2026-04-18 08:40 | 48.85930 | 9.13709 | 10965 ft | 243 kts | 137° |
| 2026-04-18 08:41 | 48.84497 | 9.14963 | 10673 ft | 237 kts | 169° |
| 2026-04-18 08:41 | 48.82893 | 9.14875 | 10356 ft | 232 kts | 201° |
| 2026-04-18 08:41 | 48.81599 | 9.13506 | 10011 ft | 228 kts | 234° |
| 2026-04-18 08:41 | 48.80905 | 9.11354 | 9647 ft | 228 kts | 251° |
| 2026-04-18 08:42 | 48.80410 | 9.09025 | 9297 ft | 229 kts | 253° |
| 2026-04-18 08:42 | 48.79950 | 9.06712 | 8977 ft | 229 kts | 254° |
| 2026-04-18 08:42 | 48.79497 | 9.04388 | 8729 ft | 230 kts | 254° |
| 2026-04-18 08:42 | 48.79048 | 9.02063 | 8480 ft | 230 kts | 254° |
| 2026-04-18 08:43 | 48.78603 | 8.99744 | 8264 ft | 228 kts | 254° |
| 2026-04-18 08:43 | 48.78161 | 8.97437 | 8187 ft | 228 kts | 254° |
| 2026-04-18 08:43 | 48.77719 | 8.95122 | 8194 ft | 229 kts | 254° |
| 2026-04-18 08:43 | 48.77277 | 8.92809 | 8194 ft | 229 kts | 254° |
| 2026-04-18 08:44 | 48.77118 | 8.90432 | 8200 ft | 228 kts | 281° |
| 2026-04-18 08:44 | 48.77811 | 8.88308 | 8190 ft | 228 kts | 315° |
| 2026-04-18 08:44 | 48.79161 | 8.87116 | 8196 ft | 227 kts | 348° |
| 2026-04-18 08:44 | 48.80696 | 8.87247 | 8199 ft | 227 kts | 22° |
| 2026-04-18 08:45 | 48.81945 | 8.88656 | 8192 ft | 227 kts | 56° |
| 2026-04-18 08:45 | 48.82469 | 8.90878 | 8200 ft | 227 kts | 89° |
| 2026-04-18 08:45 | 48.82081 | 8.93198 | 8188 ft | 227 kts | 123° |
| 2026-04-18 08:45 | 48.80949 | 8.94790 | 7930 ft | 223 kts | 156° |
| 2026-04-18 08:46 | 48.79441 | 8.95151 | 7573 ft | 222 kts | 191° |
| 2026-04-18 08:46 | 48.78029 | 8.94258 | 7214 ft | 222 kts | 211° |
| 2026-04-18 08:46 | 48.76718 | 8.93006 | 6870 ft | 223 kts | 213° |
| 2026-04-18 08:46 | 48.75437 | 8.91726 | 6678 ft | 216 kts | 214° |
| 2026-04-18 08:47 | 48.74208 | 8.90489 | 6556 ft | 208 kts | 214° |
| 2026-04-18 08:47 | 48.73026 | 8.89297 | 6415 ft | 201 kts | 214° |
| 2026-04-18 08:47 | 48.71876 | 8.88128 | 6188 ft | 198 kts | 216° |
| 2026-04-18 08:47 | 48.70966 | 8.86596 | 6045 ft | 197 kts | 236° |
| 2026-04-18 08:48 | 48.70225 | 8.84839 | 6014 ft | 199 kts | 238° |
| 2026-04-18 08:48 | 48.69482 | 8.83050 | 6006 ft | 202 kts | 233° |
| 2026-04-18 08:48 | 48.68367 | 8.81832 | 5932 ft | 200 kts | 195° |
| 2026-04-18 08:48 | 48.66987 | 8.81685 | 5735 ft | 200 kts | 177° |
| 2026-04-18 08:49 | 48.65601 | 8.81869 | 5543 ft | 199 kts | 174° |
| 2026-04-18 08:49 | 48.64258 | 8.82336 | 5337 ft | 198 kts | 150° |
| 2026-04-18 08:49 | 48.63367 | 8.83817 | 5178 ft | 190 kts | 114° |
| 2026-04-18 08:49 | 48.62972 | 8.85685 | 5034 ft | 181 kts | 105° |
| 2026-04-18 08:50 | 48.62683 | 8.87445 | 5011 ft | 165 kts | 104° |
| 2026-04-18 08:50 | 48.62651 | 8.89146 | 5022 ft | 163 kts | 77° |
| 2026-04-18 08:50 | 48.62964 | 8.90791 | 5014 ft | 162 kts | 74° |
| 2026-04-18 08:50 | 48.63283 | 8.92426 | 4942 ft | 162 kts | 74° |
| 2026-04-18 08:51 | 48.63600 | 8.94062 | 4781 ft | 162 kts | 74° |
| 2026-04-18 08:51 | 48.63911 | 8.95666 | 4585 ft | 161 kts | 74° |
| 2026-04-18 08:51 | 48.64228 | 8.97309 | 4359 ft | 160 kts | 74° |
| 2026-04-18 08:51 | 48.64537 | 8.98918 | 4160 ft | 158 kts | 74° |
| 2026-04-18 08:52 | 48.64839 | 9.00489 | 3971 ft | 150 kts | 74° |
| 2026-04-18 08:52 | 48.65120 | 9.01953 | 3772 ft | 142 kts | 74° |
| 2026-04-18 08:52 | 48.65391 | 9.03361 | 3576 ft | 138 kts | 74° |
| 2026-04-18 08:52 | 48.65656 | 9.04745 | 3391 ft | 136 kts | 74° |
| 2026-04-18 08:53 | 48.65920 | 9.06119 | 3209 ft | 136 kts | 75° |
| 2026-04-18 08:53 | 48.66181 | 9.07484 | 3027 ft | 135 kts | 74° |
| 2026-04-18 08:53 | 48.66442 | 9.08846 | 2840 ft | 134 kts | 74° |
| 2026-04-18 08:53 | 48.66700 | 9.10195 | 2668 ft | 133 kts | 75° |
| 2026-04-18 08:54 | 48.66956 | 9.11545 | 2512 ft | 135 kts | 75° |
| 2026-04-18 08:54 | 48.67215 | 9.12915 | 2372 ft | 136 kts | 74° |
| 2026-04-18 08:54 | 48.67482 | 9.14285 | 2190 ft | 135 kts | 74° |
| 2026-04-18 08:54 | 48.67748 | 9.15661 | 1973 ft | 136 kts | 75° |
| 2026-04-18 08:55 | 48.68007 | 9.17015 | 1751 ft | 133 kts | 74° |
| 2026-04-18 08:55 | 48.68262 | 9.18346 | 1580 ft | 130 kts | 74° |
| 2026-04-18 08:55 | 48.68510 | 9.19660 | 1402 ft | 130 kts | 74° |
| 2026-04-18 08:55 | 48.68752 | 9.20962 | 1267 ft | 122 kts | 75° |
| 2026-04-18 08:56 | 48.68951 | 9.22008 | 1249 ft | 80 kts | 73° |
| 2026-04-18 08:56 | 48.69064 | 9.22598 | 1225 ft | 44 kts | 74° |
| 2026-04-18 08:56 | 48.69171 | 9.22955 | 1218 ft | 34 kts | 52° |
| 2026-04-18 08:56 | 48.69297 | 9.23142 | 1218 ft | 18 kts | 35° |
| 2026-04-18 08:57 | 48.69399 | 9.22986 | 1226 ft | 12 kts | 254° |
| 2026-04-18 08:57 | 48.69378 | 9.22876 | 1228 ft | 11 kts | 253° |
| 2026-04-18 08:57 | 48.69357 | 9.22767 | 1230 ft | 10 kts | 254° |
| 2026-04-18 08:58 | 48.69337 | 9.22659 | 1233 ft | 12 kts | 254° |
| 2026-04-18 08:58 | 48.69308 | 9.22505 | 1249 ft | 16 kts | 254° |
| 2026-04-18 08:58 | 48.69277 | 9.22343 | 1247 ft | 17 kts | 254° |
| 2026-04-18 08:58 | 48.69245 | 9.22172 | 1250 ft | 16 kts | 254° |
| 2026-04-18 08:59 | 48.69217 | 9.22021 | 1256 ft | 14 kts | 254° |
| 2026-04-18 08:59 | 48.69192 | 9.21890 | 1260 ft | 12 kts | 252° |
| 2026-04-18 08:59 | 48.69167 | 9.21766 | 1259 ft | 14 kts | 253° |
| 2026-04-18 08:59 | 48.69139 | 9.21614 | 1264 ft | 15 kts | 254° |
| 2026-04-18 09:00 | 48.69111 | 9.21465 | 1262 ft | 16 kts | 254° |
| 2026-04-18 09:00 | 48.69078 | 9.21295 | 1264 ft | 16 kts | 253° |
| 2026-04-18 09:00 | 48.69052 | 9.21155 | 1267 ft | 13 kts | 255° |
| 2026-04-18 09:00 | 48.69025 | 9.21013 | 1271 ft | 16 kts | 254° |
| 2026-04-18 09:01 | 48.68990 | 9.20827 | 1277 ft | 21 kts | 255° |
| 2026-04-18 09:01 | 48.68952 | 9.20629 | 1280 ft | 17 kts | 253° |
| 2026-04-18 09:01 | 48.68919 | 9.20458 | 1284 ft | 17 kts | 254° |
| 2026-04-18 09:01 | 48.68886 | 9.20282 | 1289 ft | 17 kts | 254° |
| 2026-04-18 09:02 | 48.68856 | 9.20126 | 1293 ft | 14 kts | 255° |
| 2026-04-18 09:02 | 48.68830 | 9.20011 | 1295 ft | 10 kts | 244° |
| 2026-04-18 09:02 | 48.68818 | 9.19933 | 1297 ft | 8 kts | 286° |
| 2026-04-18 09:02 | 48.68864 | 9.19882 | 1301 ft | 7 kts | 334° |
| 2026-04-18 09:03 | 48.68889 | 9.19843 | 1303 ft | 6 kts | 286° |
| 2026-04-18 09:03 | 48.68877 | 9.19754 | 1306 ft | 7 kts | 255° |
| 2026-04-18 09:03 | 48.68867 | 9.19699 | 1308 ft | 4 kts | 255° |
| 2026-04-18 09:03 | 48.68844 | 9.19657 | 1308 ft | 7 kts | 186° |
| 2026-04-18 09:04 | 48.68805 | 9.19677 | 1305 ft | 4 kts | 163° |
| 2026-04-18 09:04 | 48.68795 | 9.19681 | 1304 ft | 0 kts | 165° |